createdAt,value
2023-04-27T00:00:11.875Z,28.87
2023-04-27T00:01:11.681Z,28.84
2023-04-27T00:02:11.772Z,28.87
2023-04-27T00:03:11.891Z,28.97
2023-04-27T00:04:11.895Z,28.86
2023-04-27T00:05:12.003Z,28.85
2023-04-27T00:06:11.912Z,28.86
2023-04-27T00:07:11.895Z,28.94
2023-04-27T00:08:11.930Z,28.90
2023-04-27T00:09:12.236Z,28.94
2023-04-27T00:10:11.979Z,28.91
2023-04-27T00:11:12.006Z,28.90
2023-04-27T00:12:12.048Z,28.88
2023-04-27T00:13:12.109Z,29.01
2023-04-27T00:14:12.118Z,28.97
2023-04-27T00:15:12.152Z,28.86
2023-04-27T00:16:12.186Z,28.91
2023-04-27T00:17:12.212Z,28.87
2023-04-27T00:18:12.238Z,28.94
2023-04-27T00:19:12.485Z,28.83
2023-04-27T00:20:12.346Z,28.88
2023-04-27T00:21:12.338Z,28.82
2023-04-27T00:22:12.370Z,28.88
2023-04-27T00:23:12.414Z,28.94
2023-04-27T00:24:12.432Z,28.87
2023-04-27T00:25:12.613Z,28.91
2023-04-27T00:26:12.502Z,28.77
2023-04-27T00:27:12.551Z,28.86
2023-04-27T00:28:12.620Z,28.90
2023-04-27T00:29:12.824Z,28.90
2023-04-27T00:30:12.637Z,28.94
2023-04-27T00:31:12.663Z,28.88
2023-04-27T00:32:12.720Z,28.90
2023-04-27T00:33:12.749Z,28.91
2023-04-27T00:34:12.764Z,28.97
2023-04-27T00:35:12.813Z,28.87
2023-04-27T00:36:12.846Z,28.88
2023-04-27T00:37:12.862Z,28.85
2023-04-27T00:38:12.925Z,28.96
2023-04-27T00:39:13.155Z,29.02
2023-04-27T00:40:12.982Z,28.91
2023-04-27T00:41:13.018Z,28.93
2023-04-27T00:42:13.056Z,28.82
2023-04-27T00:43:13.076Z,28.84
2023-04-27T00:44:13.107Z,28.83
2023-04-27T00:45:13.183Z,28.85
2023-04-27T00:46:13.282Z,28.93
2023-04-27T00:47:13.236Z,28.85
2023-04-27T00:48:13.274Z,28.93
2023-04-27T00:49:13.480Z,28.98
2023-04-27T00:50:13.334Z,29.02
2023-04-27T00:51:13.417Z,28.96
2023-04-27T00:52:13.411Z,28.98
2023-04-27T00:53:13.425Z,28.85
2023-04-27T00:54:13.447Z,28.93
2023-04-27T00:55:13.476Z,28.97
2023-04-27T00:56:13.562Z,28.98
2023-04-27T00:57:13.556Z,28.95
2023-04-27T00:58:13.623Z,28.91
2023-04-27T00:59:13.842Z,28.88
2023-04-27T01:00:13.763Z,28.90
2023-04-27T01:01:13.770Z,28.97
2023-04-27T01:02:13.936Z,28.93
2023-04-27T01:03:14.005Z,29.00
2023-04-27T01:04:13.966Z,28.97
2023-04-27T01:05:13.855Z,28.93
2023-04-27T01:06:13.874Z,28.85
2023-04-27T01:07:13.913Z,28.90
2023-04-27T01:08:13.945Z,28.90
2023-04-27T01:09:14.321Z,29.01
2023-04-27T01:10:14.029Z,28.92
2023-04-27T01:11:14.048Z,28.90
2023-04-27T01:12:14.080Z,28.91
2023-04-27T01:13:14.132Z,28.87
2023-04-27T01:14:14.155Z,28.90
2023-04-27T01:15:14.230Z,28.85
2023-04-27T01:16:14.275Z,28.90
2023-04-27T01:17:14.369Z,28.98
2023-04-27T01:18:14.357Z,28.90
2023-04-27T01:19:14.706Z,28.90
2023-04-27T01:20:14.401Z,28.88
2023-04-27T01:21:14.460Z,28.88
2023-04-27T01:22:14.544Z,28.91
2023-04-27T01:23:16.773Z,28.93
2023-04-27T01:24:14.514Z,28.91
2023-04-27T01:25:14.576Z,28.92
2023-04-27T01:26:14.584Z,28.91
2023-04-27T01:27:14.482Z,28.94
2023-04-27T01:28:14.489Z,29.00
2023-04-27T01:29:14.761Z,28.98
2023-04-27T01:30:14.486Z,28.87
2023-04-27T01:31:14.546Z,28.84
2023-04-27T01:32:14.478Z,28.91
2023-04-27T01:33:14.486Z,28.87
2023-04-27T01:34:14.454Z,28.94
2023-04-27T01:35:14.489Z,28.95
2023-04-27T01:36:14.421Z,28.94
2023-04-27T01:37:14.463Z,28.94
2023-04-27T01:38:14.460Z,28.87
2023-04-27T01:39:14.699Z,29.05
2023-04-27T01:40:14.420Z,28.99
2023-04-27T01:41:14.408Z,28.99
2023-04-27T01:42:14.400Z,29.11
2023-04-27T01:43:14.386Z,28.95
2023-04-27T01:44:14.395Z,28.98
2023-04-27T01:45:14.417Z,29.03
2023-04-27T01:46:14.420Z,29.08
2023-04-27T01:47:14.381Z,28.97
2023-04-27T01:48:14.380Z,28.99
2023-04-27T01:49:14.552Z,28.97
2023-04-27T01:50:14.375Z,28.92
2023-04-27T01:51:14.389Z,29.05
2023-04-27T01:52:14.352Z,28.99
2023-04-27T01:53:14.350Z,29.02
2023-04-27T01:54:14.320Z,29.04
2023-04-27T01:55:14.352Z,29.01
2023-04-27T01:56:14.318Z,29.01
2023-04-27T01:57:14.335Z,29.01
2023-04-27T01:58:14.305Z,29.02
2023-04-27T01:59:14.525Z,29.02
2023-04-27T02:00:14.268Z,28.95
2023-04-27T02:01:14.317Z,28.96
2023-04-27T02:02:14.287Z,28.98
2023-04-27T02:03:14.369Z,29.05
2023-04-27T02:04:14.472Z,29.05
2023-04-27T02:05:14.254Z,29.06
2023-04-27T02:06:14.252Z,29.05
2023-04-27T02:07:14.233Z,29.02
2023-04-27T02:08:14.235Z,29.00
2023-04-27T02:09:14.424Z,29.05
2023-04-27T02:10:14.241Z,29.03
2023-04-27T02:11:14.221Z,29.02
2023-04-27T02:12:14.299Z,29.06
2023-04-27T02:13:14.321Z,29.06
2023-04-27T02:14:14.389Z,28.94
2023-04-27T02:15:14.417Z,29.06
2023-04-27T02:16:14.480Z,28.95
2023-04-27T02:17:14.490Z,29.03
2023-04-27T02:18:14.505Z,29.01
2023-04-27T02:19:14.718Z,29.01
2023-04-27T02:20:14.619Z,29.05
2023-04-27T02:21:14.642Z,29.05
2023-04-27T02:22:14.670Z,29.09
2023-04-27T02:23:14.716Z,29.05
2023-04-27T02:24:14.760Z,29.02
2023-04-27T02:25:14.851Z,28.99
2023-04-27T02:26:14.842Z,28.98
2023-04-27T02:27:14.879Z,29.05
2023-04-27T02:28:14.895Z,29.09
2023-04-27T02:29:15.882Z,29.06
2023-04-27T02:30:15.022Z,29.06
2023-04-27T02:31:15.087Z,28.99
2023-04-27T02:32:15.078Z,29.07
2023-04-27T02:33:15.145Z,29.02
2023-04-27T02:34:15.156Z,29.03
2023-04-27T02:35:15.201Z,28.95
2023-04-27T02:36:15.283Z,29.10
2023-04-27T02:37:15.319Z,29.05
2023-04-27T02:38:15.317Z,29.00
2023-04-27T02:39:15.615Z,29.08
2023-04-27T02:40:15.475Z,29.06
2023-04-27T02:41:15.457Z,29.06
2023-04-27T02:42:15.507Z,29.02
2023-04-27T02:43:15.550Z,28.99
2023-04-27T02:44:15.592Z,28.99
2023-04-27T02:45:15.657Z,29.01
2023-04-27T02:46:15.710Z,29.02
2023-04-27T02:47:15.765Z,28.98
2023-04-27T02:48:15.771Z,28.95
2023-04-27T02:49:16.131Z,29.03
2023-04-27T02:50:15.862Z,29.13
2023-04-27T02:51:15.917Z,28.99
2023-04-27T02:52:15.950Z,29.12
2023-04-27T02:53:15.984Z,29.03
2023-04-27T02:54:16.035Z,29.06
2023-04-27T02:55:23.146Z,29.03
2023-04-27T02:56:16.051Z,29.05
2023-04-27T02:57:16.051Z,29.02
2023-04-27T02:58:16.064Z,29.10
2023-04-27T02:59:16.281Z,29.05
2023-04-27T03:00:16.036Z,28.99
2023-04-27T03:01:16.060Z,29.09
2023-04-27T03:02:16.022Z,29.05
2023-04-27T03:03:16.142Z,29.09
2023-04-27T03:04:16.254Z,29.11
2023-04-27T03:05:16.019Z,29.06
2023-04-27T03:06:15.976Z,29.06
2023-04-27T03:07:15.979Z,29.03
2023-04-27T03:08:15.993Z,29.02
2023-04-27T03:09:16.451Z,29.07
2023-04-27T03:10:15.960Z,29.09
2023-04-27T03:11:15.968Z,29.03
2023-04-27T03:12:15.967Z,29.07
2023-04-27T03:13:15.958Z,29.07
2023-04-27T03:14:15.977Z,29.14
2023-04-27T03:15:15.945Z,29.07
2023-04-27T03:16:16.663Z,29.11
2023-04-27T03:17:15.909Z,29.02
2023-04-27T03:18:15.918Z,28.99
2023-04-27T03:19:16.089Z,29.04
2023-04-27T03:20:15.912Z,29.05
2023-04-27T03:21:15.890Z,29.11
2023-04-27T03:22:15.951Z,29.15
2023-04-27T03:23:15.930Z,29.18
2023-04-27T03:24:15.998Z,29.03
2023-04-27T03:25:16.048Z,29.02
2023-04-27T03:26:16.124Z,29.07
2023-04-27T03:27:16.145Z,29.11
2023-04-27T03:28:16.177Z,29.13
2023-04-27T03:29:16.278Z,29.12
2023-04-27T03:30:16.290Z,29.13
2023-04-27T03:31:16.375Z,29.15
2023-04-27T03:32:16.380Z,29.09
2023-04-27T03:33:16.555Z,29.11
2023-04-27T03:34:16.457Z,29.20
2023-04-27T03:35:16.498Z,29.07
2023-04-27T03:36:16.585Z,29.14
2023-04-27T03:37:16.589Z,29.06
2023-04-27T03:38:16.645Z,29.10
2023-04-27T03:39:16.736Z,29.15
2023-04-27T03:40:16.768Z,29.09
2023-04-27T03:41:16.770Z,29.05
2023-04-27T03:42:16.816Z,29.23
2023-04-27T03:43:16.861Z,29.13
2023-04-27T03:44:16.884Z,29.10
2023-04-27T03:45:16.951Z,29.18
2023-04-27T03:46:17.012Z,29.15
2023-04-27T03:47:17.041Z,29.16
2023-04-27T03:48:17.094Z,29.21
2023-04-27T03:49:17.126Z,29.17
2023-04-27T03:50:17.165Z,29.08
2023-04-27T03:51:17.200Z,29.11
2023-04-27T03:52:17.267Z,29.17
2023-04-27T03:53:17.301Z,29.20
2023-04-27T03:54:17.338Z,29.10
2023-04-27T03:55:17.408Z,29.08
2023-04-27T03:56:17.454Z,29.21
2023-04-27T03:57:17.483Z,29.15
2023-04-27T03:58:17.550Z,29.24
2023-04-27T03:59:17.586Z,29.08
2023-04-27T04:00:17.677Z,29.05
2023-04-27T04:01:17.658Z,29.07
2023-04-27T04:02:17.794Z,29.18
2023-04-27T04:03:18.050Z,29.15
2023-04-27T04:04:17.918Z,29.23
2023-04-27T04:05:17.988Z,29.14
2023-04-27T04:06:17.911Z,29.14
2023-04-27T04:07:17.959Z,29.11
2023-04-27T04:08:18.008Z,29.12
2023-04-27T04:09:18.050Z,29.05
2023-04-27T04:10:18.105Z,29.20
2023-04-27T04:11:18.157Z,29.14
2023-04-27T04:12:18.194Z,29.17
2023-04-27T04:13:18.279Z,29.26
2023-04-27T04:14:18.294Z,29.07
2023-04-27T04:15:18.331Z,29.18
2023-04-27T04:16:18.460Z,29.15
2023-04-27T04:17:18.497Z,29.18
2023-04-27T04:18:18.495Z,29.20
2023-04-27T04:19:19.586Z,29.17
2023-04-27T04:20:18.586Z,29.11
2023-04-27T04:21:18.509Z,29.18
2023-04-27T04:22:18.512Z,29.11
2023-04-27T04:23:18.505Z,29.15
2023-04-27T04:24:18.505Z,29.14
2023-04-27T04:25:18.538Z,29.17
2023-04-27T04:26:18.485Z,29.12
2023-04-27T04:27:18.510Z,29.17
2023-04-27T04:28:18.502Z,29.17
2023-04-27T04:29:18.462Z,29.24
2023-04-27T04:30:18.483Z,29.18
2023-04-27T04:31:18.542Z,29.28
2023-04-27T04:32:18.454Z,29.33
2023-04-27T04:33:18.455Z,29.17
2023-04-27T04:34:18.459Z,29.18
2023-04-27T04:35:18.417Z,29.15
2023-04-27T04:36:18.420Z,29.17
2023-04-27T04:37:18.438Z,29.20
2023-04-27T04:38:18.405Z,29.11
2023-04-27T04:39:18.394Z,29.28
2023-04-27T04:40:18.418Z,29.14
2023-04-27T04:41:18.389Z,29.22
2023-04-27T04:42:18.382Z,29.17
2023-04-27T04:43:18.442Z,29.21
2023-04-27T04:44:18.344Z,29.23
2023-04-27T04:45:18.348Z,29.20
2023-04-27T04:46:18.374Z,29.18
2023-04-27T04:47:18.333Z,29.22
2023-04-27T04:48:18.334Z,29.25
2023-04-27T04:49:18.353Z,29.32
2023-04-27T04:50:18.348Z,29.25
2023-04-27T04:51:18.357Z,29.24
2023-04-27T04:52:18.300Z,29.23
2023-04-27T04:53:18.302Z,29.22
2023-04-27T04:54:18.303Z,29.23
2023-04-27T04:55:18.283Z,29.18
2023-04-27T04:56:18.306Z,29.18
2023-04-27T04:57:18.265Z,29.21
2023-04-27T04:58:18.280Z,29.20
2023-04-27T04:59:18.252Z,29.22
2023-04-27T05:00:18.257Z,29.31
2023-04-27T05:01:18.301Z,29.21
2023-04-27T05:02:18.476Z,29.23
2023-04-27T05:03:18.428Z,29.31
2023-04-27T05:04:18.471Z,29.25
2023-04-27T05:05:18.393Z,29.22
2023-04-27T05:06:18.427Z,29.17
2023-04-27T05:07:22.112Z,29.26
2023-04-27T05:08:19.480Z,29.28
2023-04-27T05:09:18.438Z,29.35
2023-04-27T05:10:18.454Z,29.29
2023-04-27T05:11:18.431Z,29.28
2023-04-27T05:12:18.417Z,29.28
2023-04-27T05:13:18.438Z,29.35
2023-04-27T05:14:18.418Z,29.29
2023-04-27T05:15:18.417Z,29.23
2023-04-27T05:16:18.566Z,29.29
2023-04-27T05:17:18.412Z,29.29
2023-04-27T05:18:18.417Z,29.26
2023-04-27T05:19:18.450Z,29.34
2023-04-27T05:20:18.517Z,29.48
2023-04-27T05:21:18.551Z,29.42
2023-04-27T05:22:18.618Z,29.36
2023-04-27T05:23:18.624Z,29.41
2023-04-27T05:24:18.743Z,29.41
2023-04-27T05:25:18.842Z,29.38
2023-04-27T05:26:18.850Z,29.42
2023-04-27T05:27:18.847Z,29.39
2023-04-27T05:28:18.914Z,29.37
2023-04-27T05:29:18.941Z,29.38
2023-04-27T05:30:19.048Z,29.39
2023-04-27T05:31:19.104Z,29.39
2023-04-27T05:32:19.121Z,29.50
2023-04-27T05:33:19.134Z,29.48
2023-04-27T05:34:19.203Z,29.59
2023-04-27T05:35:19.268Z,29.64
2023-04-27T05:36:19.270Z,29.74
2023-04-27T05:37:19.321Z,29.99
2023-04-27T05:38:19.381Z,30.51
2023-04-27T05:39:19.411Z,30.44
2023-04-27T05:40:19.464Z,30.81
2023-04-27T05:41:19.493Z,31.07
2023-04-27T05:42:20.221Z,31.32
2023-04-27T05:43:19.738Z,31.66
2023-04-27T05:44:19.630Z,31.61
2023-04-27T05:45:19.643Z,31.57
2023-04-27T05:46:19.873Z,31.84
2023-04-27T05:47:19.686Z,31.89
2023-04-27T05:48:19.698Z,32.15
2023-04-27T05:49:19.769Z,32.17
2023-04-27T05:50:19.765Z,32.43
2023-04-27T05:51:19.771Z,32.73
2023-04-27T05:52:19.794Z,33.02
2023-04-27T05:53:20.231Z,33.18
2023-04-27T05:54:19.831Z,33.35
2023-04-27T05:55:19.848Z,33.64
2023-04-27T05:56:19.931Z,33.60
2023-04-27T05:57:19.858Z,33.89
2023-04-27T05:58:19.890Z,33.82
2023-04-27T05:59:19.882Z,34.09
2023-04-27T06:00:20.296Z,34.29
2023-04-27T06:01:19.905Z,34.33
2023-04-27T06:02:20.048Z,34.43
2023-04-27T06:03:19.977Z,34.65
2023-04-27T06:04:20.047Z,35.01
2023-04-27T06:05:19.969Z,34.85
2023-04-27T06:06:19.946Z,35.04
2023-04-27T06:07:19.869Z,35.24
2023-04-27T06:08:20.790Z,35.52
2023-04-27T06:09:19.909Z,35.44
2023-04-27T06:10:19.925Z,35.96
2023-04-27T06:11:19.939Z,36.04
2023-04-27T06:12:19.954Z,36.05
2023-04-27T06:13:19.993Z,36.09
2023-04-27T06:14:20.123Z,36.09
2023-04-27T06:15:20.770Z,36.17
2023-04-27T06:16:20.120Z,36.35
2023-04-27T06:17:20.112Z,36.52
2023-04-27T06:18:20.105Z,36.58
2023-04-27T06:19:20.209Z,36.70
2023-04-27T06:20:20.310Z,36.76
2023-04-27T06:21:20.273Z,36.91
2023-04-27T06:22:20.308Z,36.98
2023-04-27T06:23:20.351Z,37.02
2023-04-27T06:24:20.655Z,37.02
2023-04-27T06:25:20.567Z,37.06
2023-04-27T06:26:20.585Z,37.32
2023-04-27T06:27:20.820Z,37.28
2023-04-27T06:28:20.671Z,37.31
2023-04-27T06:29:20.755Z,37.45
2023-04-27T06:30:20.882Z,37.72
2023-04-27T06:31:20.935Z,37.65
2023-04-27T06:32:20.897Z,37.81
2023-04-27T06:33:20.960Z,37.87
2023-04-27T06:34:21.000Z,37.94
2023-04-27T06:35:21.080Z,38.03
2023-04-27T06:36:21.134Z,38.28
2023-04-27T06:37:21.211Z,38.01
2023-04-27T06:38:21.273Z,37.83
2023-04-27T06:39:21.280Z,37.92
2023-04-27T06:40:21.356Z,37.75
2023-04-27T06:41:21.397Z,37.58
2023-04-27T06:42:21.443Z,37.40
2023-04-27T06:43:21.771Z,37.31
2023-04-27T06:44:21.550Z,37.22
2023-04-27T06:45:21.594Z,37.23
2023-04-27T06:46:21.704Z,37.12
2023-04-27T06:47:21.738Z,37.16
2023-04-27T06:48:21.860Z,37.11
2023-04-27T06:49:21.902Z,37.04
2023-04-27T06:50:21.958Z,36.91
2023-04-27T06:51:22.007Z,36.97
2023-04-27T06:52:22.105Z,36.89
2023-04-27T06:53:22.140Z,36.96
2023-04-27T06:54:22.201Z,36.91
2023-04-27T06:55:22.226Z,36.90
2023-04-27T06:56:22.302Z,36.87
2023-04-27T06:57:22.387Z,36.86
2023-04-27T06:58:22.404Z,36.81
2023-04-27T06:59:22.473Z,36.83
2023-04-27T07:00:22.516Z,36.80
2023-04-27T07:01:22.659Z,36.81
2023-04-27T07:02:24.925Z,36.69
2023-04-27T07:03:22.757Z,36.73
2023-04-27T07:04:22.906Z,36.65
2023-04-27T07:05:22.656Z,36.72
2023-04-27T07:06:22.612Z,36.61
2023-04-27T07:07:22.633Z,36.60
2023-04-27T07:08:22.614Z,36.53
2023-04-27T07:09:27.483Z,36.49
2023-04-27T07:10:23.609Z,36.47
2023-04-27T07:11:22.585Z,36.39
2023-04-27T07:12:22.583Z,36.41
2023-04-27T07:13:22.583Z,36.35
2023-04-27T07:14:22.552Z,36.33
2023-04-27T07:15:22.602Z,36.26
2023-04-27T07:16:22.578Z,36.27
2023-04-27T07:17:22.615Z,36.19
2023-04-27T07:18:22.789Z,36.16
2023-04-27T07:19:22.534Z,36.16
2023-04-27T07:20:22.539Z,36.07
2023-04-27T07:21:22.579Z,36.10
2023-04-27T07:22:22.540Z,36.04
2023-04-27T07:23:22.614Z,36.04
2023-04-27T07:24:22.585Z,36.06
2023-04-27T07:25:22.680Z,35.95
2023-04-27T07:26:22.754Z,35.90
2023-04-27T07:27:22.681Z,35.95
2023-04-27T07:28:22.713Z,35.88
2023-04-27T07:29:27.187Z,35.91
2023-04-27T07:30:22.737Z,35.87
2023-04-27T07:31:22.731Z,35.89
2023-04-27T07:32:22.862Z,35.87
2023-04-27T07:33:22.753Z,36.22
2023-04-27T07:34:22.730Z,36.69
2023-04-27T07:35:22.674Z,37.39
2023-04-27T07:36:22.693Z,37.74
2023-04-27T07:37:22.693Z,37.89
2023-04-27T07:38:22.787Z,37.84
2023-04-27T07:39:24.295Z,37.73
2023-04-27T07:40:22.644Z,37.14
2023-04-27T07:41:22.857Z,37.27
2023-04-27T07:42:22.743Z,36.87
2023-04-27T07:43:22.811Z,36.94
2023-04-27T07:44:22.918Z,37.14
2023-04-27T07:45:23.028Z,37.41
2023-04-27T07:46:23.899Z,37.73
2023-04-27T07:47:23.055Z,37.81
2023-04-27T07:48:23.355Z,37.81
2023-04-27T07:49:23.211Z,37.82
2023-04-27T07:50:23.263Z,37.80
2023-04-27T07:51:23.803Z,37.76
2023-04-27T07:52:23.362Z,37.66
2023-04-27T07:53:23.408Z,37.56
2023-04-27T07:54:23.482Z,37.68
2023-04-27T07:55:23.604Z,37.47
2023-04-27T07:56:23.760Z,37.52
2023-04-27T07:57:23.666Z,37.28
2023-04-27T07:58:23.792Z,37.46
2023-04-27T07:59:23.831Z,37.39
2023-04-27T08:00:23.978Z,37.33
2023-04-27T08:01:23.898Z,37.16
2023-04-27T08:02:24.107Z,37.27
2023-04-27T08:03:24.550Z,37.13
2023-04-27T08:04:24.319Z,36.98
2023-04-27T08:05:24.619Z,36.82
2023-04-27T08:06:24.853Z,36.93
2023-04-27T08:07:24.290Z,36.85
2023-04-27T08:08:24.353Z,36.83
2023-04-27T08:09:24.396Z,36.79
2023-04-27T08:10:24.478Z,36.78
2023-04-27T08:11:24.529Z,36.81
2023-04-27T08:12:24.528Z,36.76
2023-04-27T08:13:25.555Z,36.62
2023-04-27T08:14:24.643Z,36.89
2023-04-27T08:15:24.698Z,36.58
2023-04-27T08:16:24.948Z,36.49
2023-04-27T08:17:24.822Z,36.48
2023-04-27T08:18:24.865Z,36.52
2023-04-27T08:19:24.914Z,36.39
2023-04-27T08:20:24.977Z,36.32
2023-04-27T08:21:25.103Z,36.38
2023-04-27T08:22:25.080Z,36.38
2023-04-27T08:23:25.199Z,36.54
2023-04-27T08:24:25.162Z,36.58
2023-04-27T08:25:25.224Z,36.72
2023-04-27T08:26:26.409Z,36.92
2023-04-27T08:27:25.357Z,37.07
2023-04-27T08:28:25.396Z,37.17
2023-04-27T08:29:28.585Z,37.26
2023-04-27T08:30:25.484Z,37.31
2023-04-27T08:31:25.842Z,37.32
2023-04-27T08:32:25.429Z,37.16
2023-04-27T08:33:25.404Z,37.05
2023-04-27T08:34:25.406Z,37.01
2023-04-27T08:35:25.374Z,36.88
2023-04-27T08:36:25.368Z,36.69
2023-04-27T08:37:25.471Z,36.44
2023-04-27T08:38:25.734Z,36.35
2023-04-27T08:39:25.334Z,36.13
2023-04-27T08:40:25.345Z,35.91
2023-04-27T08:41:25.386Z,36.01
2023-04-27T08:42:25.402Z,35.02
2023-04-27T08:43:25.320Z,34.63
2023-04-27T08:44:25.310Z,35.25
2023-04-27T08:45:25.298Z,35.30
2023-04-27T08:46:25.364Z,35.34
2023-04-27T08:47:35.133Z,35.38
2023-04-27T08:48:26.335Z,35.43
2023-04-27T08:49:25.271Z,35.39
2023-04-27T08:50:25.307Z,35.46
2023-04-27T08:51:25.273Z,35.53
2023-04-27T08:52:25.254Z,35.45
2023-04-27T08:53:25.247Z,35.44
2023-04-27T08:54:25.235Z,35.44
2023-04-27T08:55:25.260Z,35.54
2023-04-27T08:56:25.307Z,35.44
2023-04-27T08:57:25.321Z,35.49
2023-04-27T08:58:25.342Z,35.46
2023-04-27T08:59:25.438Z,35.46
2023-04-27T09:00:25.472Z,35.49
2023-04-27T09:01:25.540Z,35.49
2023-04-27T09:02:25.732Z,35.44
2023-04-27T09:03:25.788Z,35.46
2023-04-27T09:04:25.778Z,35.50
2023-04-27T09:05:25.834Z,35.44
2023-04-27T09:06:25.876Z,35.42
2023-04-27T09:07:27.988Z,35.39
2023-04-27T09:08:25.835Z,35.40
2023-04-27T09:09:25.832Z,35.41
2023-04-27T09:10:25.853Z,35.36
2023-04-27T09:11:25.830Z,35.32
2023-04-27T09:12:25.799Z,35.31
2023-04-27T09:13:25.791Z,35.24
2023-04-27T09:14:25.796Z,35.24
2023-04-27T09:15:25.808Z,35.23
2023-04-27T09:16:25.828Z,35.18
2023-04-27T09:17:25.799Z,35.09
2023-04-27T09:18:25.782Z,35.08
2023-04-27T09:19:25.752Z,35.17
2023-04-27T09:20:25.735Z,35.07
2023-04-27T09:21:25.739Z,35.06
2023-04-27T09:22:25.714Z,35.03
2023-04-27T09:23:25.726Z,35.07
2023-04-27T09:24:25.714Z,35.07
2023-04-27T09:25:25.723Z,34.97
2023-04-27T09:26:25.731Z,35.21
2023-04-27T09:27:25.754Z,35.05
2023-04-27T09:28:25.679Z,35.01
2023-04-27T09:29:25.691Z,34.99
2023-04-27T09:30:25.656Z,34.56
2023-04-27T09:31:25.678Z,34.52
2023-04-27T09:32:25.691Z,34.48
2023-04-27T09:33:25.654Z,34.09
2023-04-27T09:34:25.660Z,34.04
2023-04-27T09:35:25.644Z,32.86
2023-04-27T09:36:25.633Z,33.03
2023-04-27T09:37:25.632Z,33.22
2023-04-27T09:38:26.305Z,33.00
2023-04-27T09:39:25.658Z,33.11
2023-04-27T09:40:25.603Z,33.45
2023-04-27T09:41:25.600Z,33.59
2023-04-27T09:42:25.596Z,33.67
2023-04-27T09:43:25.699Z,33.73
2023-04-27T09:44:25.684Z,33.66
2023-04-27T09:45:25.841Z,33.06
2023-04-27T09:46:25.593Z,32.83
2023-04-27T09:47:25.633Z,32.62
2023-04-27T09:48:25.794Z,32.42
2023-04-27T09:49:25.692Z,32.39
2023-04-27T09:50:25.723Z,32.53
2023-04-27T09:51:25.828Z,33.07
2023-04-27T09:52:26.033Z,32.95
2023-04-27T09:53:25.920Z,32.72
2023-04-27T09:54:26.069Z,32.71
2023-04-27T09:55:26.042Z,32.76
2023-04-27T09:56:26.088Z,32.79
2023-04-27T09:57:26.163Z,32.89
2023-04-27T09:58:26.204Z,32.51
2023-04-27T09:59:26.273Z,32.88
2023-04-27T10:00:26.328Z,33.00
2023-04-27T10:01:26.412Z,32.63
2023-04-27T10:02:26.504Z,32.81
2023-04-27T10:03:26.562Z,32.80
2023-04-27T10:04:26.672Z,32.84
2023-04-27T10:05:26.615Z,32.94
2023-04-27T10:06:26.642Z,32.61
2023-04-27T10:07:26.677Z,32.75
2023-04-27T10:08:26.733Z,32.76
2023-04-27T10:09:26.824Z,32.75
2023-04-27T10:10:26.825Z,32.74
2023-04-27T10:11:26.954Z,32.78
2023-04-27T10:12:26.962Z,32.76
2023-04-27T10:13:26.978Z,32.87
2023-04-27T10:14:27.050Z,32.84
2023-04-27T10:15:27.054Z,32.70
2023-04-27T10:16:27.168Z,32.45
2023-04-27T10:17:27.231Z,32.75
2023-04-27T10:18:27.317Z,32.81
2023-04-27T10:19:27.257Z,32.90
2023-04-27T10:20:27.261Z,33.02
2023-04-27T10:21:27.363Z,33.06
2023-04-27T10:22:27.337Z,33.14
2023-04-27T10:23:29.318Z,33.22
2023-04-27T10:24:27.427Z,33.49
2023-04-27T10:25:27.490Z,33.65
2023-04-27T10:26:27.533Z,33.02
2023-04-27T10:27:27.515Z,32.67
2023-04-27T10:28:27.552Z,32.79
2023-04-27T10:29:27.829Z,33.03
2023-04-27T10:30:28.336Z,32.69
2023-04-27T10:31:27.748Z,32.69
2023-04-27T10:32:27.847Z,32.66
2023-04-27T10:33:28.326Z,32.65
2023-04-27T10:34:28.602Z,32.46
2023-04-27T10:35:27.842Z,32.58
2023-04-27T10:36:27.930Z,32.66
2023-04-27T10:37:27.934Z,32.67
2023-04-27T10:38:27.947Z,32.64
2023-04-27T10:39:43.753Z,32.77
2023-04-27T10:40:29.011Z,32.90
2023-04-27T10:41:28.364Z,32.91
2023-04-27T10:42:28.016Z,32.86
2023-04-27T10:43:28.059Z,32.94
2023-04-27T10:44:27.967Z,33.00
2023-04-27T10:45:31.119Z,33.00
2023-04-27T10:46:28.062Z,33.06
2023-04-27T10:47:27.958Z,33.03
2023-04-27T10:48:27.939Z,33.03
2023-04-27T10:49:27.990Z,33.01
2023-04-27T10:50:27.929Z,33.02
2023-04-27T10:51:27.995Z,33.05
2023-04-27T10:52:27.961Z,33.09
2023-04-27T10:53:27.919Z,33.11
2023-04-27T10:54:27.883Z,33.11
2023-04-27T10:55:27.960Z,33.12
2023-04-27T10:56:27.938Z,33.08
2023-04-27T10:57:27.918Z,33.13
2023-04-27T10:58:37.777Z,33.08
2023-04-27T10:59:28.857Z,33.11
2023-04-27T11:00:27.861Z,33.11
2023-04-27T11:01:27.966Z,33.21
2023-04-27T11:02:27.958Z,33.24
2023-04-27T11:03:27.900Z,33.29
2023-04-27T11:04:27.834Z,33.34
2023-04-27T11:05:27.917Z,33.33
2023-04-27T11:06:27.898Z,33.22
2023-04-27T11:07:27.897Z,33.24
2023-04-27T11:08:27.821Z,33.30
2023-04-27T11:09:27.843Z,33.33
2023-04-27T11:10:27.788Z,33.34
2023-04-27T11:11:27.816Z,33.37
2023-04-27T11:12:27.770Z,33.37
2023-04-27T11:13:27.900Z,33.45
2023-04-27T11:14:27.796Z,33.50
2023-04-27T11:15:27.767Z,33.44
2023-04-27T11:16:28.059Z,33.57
2023-04-27T11:17:27.946Z,33.54
2023-04-27T11:18:27.978Z,33.39
2023-04-27T11:19:27.875Z,33.35
2023-04-27T11:20:27.910Z,33.35
2023-04-27T11:21:28.369Z,33.39
2023-04-27T11:22:28.055Z,33.43
2023-04-27T11:23:27.993Z,33.48
2023-04-27T11:24:28.387Z,33.40
2023-04-27T11:25:28.059Z,33.40
2023-04-27T11:26:28.376Z,33.45
2023-04-27T11:27:28.090Z,33.50
2023-04-27T11:28:28.159Z,33.51
2023-04-27T11:29:28.383Z,33.58
2023-04-27T11:30:28.203Z,33.58
2023-04-27T11:31:28.423Z,33.58
2023-04-27T11:32:28.290Z,33.57
2023-04-27T11:33:28.307Z,33.61
2023-04-27T11:34:28.322Z,33.60
2023-04-27T11:35:28.411Z,33.64
2023-04-27T11:36:28.406Z,33.70
2023-04-27T11:37:28.429Z,33.64
2023-04-27T11:38:28.483Z,33.69
2023-04-27T11:39:28.653Z,33.75
2023-04-27T11:40:28.593Z,33.70
2023-04-27T11:41:28.547Z,33.72
2023-04-27T11:42:28.754Z,33.80
2023-04-27T11:43:28.632Z,33.76
2023-04-27T11:44:28.663Z,33.76
2023-04-27T11:45:28.679Z,33.73
2023-04-27T11:46:28.727Z,33.70
2023-04-27T11:47:28.900Z,33.72
2023-04-27T11:48:28.808Z,33.72
2023-04-27T11:49:28.799Z,33.69
2023-04-27T11:50:28.871Z,33.67
2023-04-27T11:51:28.849Z,33.70
2023-04-27T11:52:28.918Z,33.71
2023-04-27T11:53:28.941Z,33.63
2023-04-27T11:54:28.999Z,33.71
2023-04-27T11:55:29.069Z,33.78
2023-04-27T11:56:29.048Z,33.70
2023-04-27T11:57:29.125Z,33.64
2023-04-27T11:58:29.129Z,33.65
2023-04-27T11:59:29.193Z,33.67
2023-04-27T12:00:29.175Z,33.67
2023-04-27T12:01:37.589Z,33.69
2023-04-27T12:02:30.355Z,33.60
2023-04-27T12:03:29.441Z,33.65
2023-04-27T12:04:29.502Z,33.65
2023-04-27T12:05:29.310Z,33.68
2023-04-27T12:06:33.274Z,33.65
2023-04-27T12:07:29.192Z,33.58
2023-04-27T12:08:29.178Z,33.73
2023-04-27T12:09:29.164Z,33.69
2023-04-27T12:10:29.171Z,33.69
2023-04-27T12:11:29.156Z,33.67
2023-04-27T12:12:29.157Z,33.68
2023-04-27T12:13:29.152Z,33.65
2023-04-27T12:14:29.328Z,33.66
2023-04-27T12:15:29.167Z,33.64
2023-04-27T12:16:29.185Z,33.65
2023-04-27T12:17:29.167Z,33.64
2023-04-27T12:18:29.095Z,33.69
2023-04-27T12:19:29.107Z,33.66
2023-04-27T12:20:29.132Z,33.64
2023-04-27T12:21:29.100Z,33.63
2023-04-27T12:22:29.109Z,33.64
2023-04-27T12:23:29.115Z,33.66
2023-04-27T12:24:29.234Z,33.70
2023-04-27T12:25:29.109Z,33.68
2023-04-27T12:26:29.117Z,33.69
2023-04-27T12:27:29.099Z,33.67
2023-04-27T12:28:29.155Z,33.61
2023-04-27T12:29:29.190Z,33.66
2023-04-27T12:30:29.194Z,33.62
2023-04-27T12:31:29.303Z,33.60
2023-04-27T12:32:29.344Z,33.56
2023-04-27T12:33:29.320Z,33.63
2023-04-27T12:34:29.359Z,33.60
2023-04-27T12:35:29.460Z,33.59
2023-04-27T12:36:29.421Z,33.70
2023-04-27T12:37:29.439Z,33.67
2023-04-27T12:38:29.661Z,33.72
2023-04-27T12:39:29.567Z,33.65
2023-04-27T12:40:29.605Z,33.71
2023-04-27T12:41:29.627Z,33.65
2023-04-27T12:42:29.724Z,33.63
2023-04-27T12:43:29.705Z,33.61
2023-04-27T12:44:29.776Z,33.74
2023-04-27T12:45:29.803Z,33.75
2023-04-27T12:46:29.921Z,33.68
2023-04-27T12:47:49.720Z,33.64
2023-04-27T12:48:30.894Z,33.61
2023-04-27T12:49:29.938Z,33.61
2023-04-27T12:50:29.890Z,33.62
2023-04-27T12:51:29.865Z,33.62
2023-04-27T12:52:29.835Z,33.64